createdAt,value
2019-02-17T00:02:03.889Z,100.00
2019-02-17T00:04:32.304Z,100.00
2019-02-17T00:07:00.691Z,100.00
2019-02-17T00:09:32.108Z,100.00
2019-02-17T00:12:00.487Z,100.00
2019-02-17T00:14:28.836Z,100.00
2019-02-17T00:16:57.191Z,100.00
2019-02-17T00:19:25.643Z,100.00
2019-02-17T00:21:53.995Z,100.00
2019-02-17T00:24:22.380Z,100.00
2019-02-17T00:26:50.802Z,100.00
2019-02-17T00:29:19.258Z,100.00
2019-02-17T00:31:47.615Z,100.00
2019-02-17T00:34:16.065Z,100.00
2019-02-17T00:36:44.412Z,100.00
2019-02-17T00:39:12.792Z,100.00
2019-02-17T00:41:41.148Z,100.00
2019-02-17T00:44:09.949Z,100.00
2019-02-17T00:46:38.577Z,100.00
2019-02-17T00:49:06.938Z,100.00
2019-02-17T00:51:35.816Z,100.00
2019-02-17T00:54:04.198Z,100.00
2019-02-17T00:56:32.556Z,100.00
2019-02-17T00:59:09.823Z,100.00
2019-02-17T01:01:31.026Z,100.00
2019-02-17T01:03:59.414Z,100.00
2019-02-17T01:06:27.767Z,100.00
2019-02-17T01:08:56.153Z,100.00
2019-02-17T01:11:24.501Z,100.00
2019-02-17T01:13:52.895Z,100.00
2019-02-17T01:16:21.252Z,100.00
2019-02-17T01:18:49.634Z,100.00
2019-02-17T01:21:17.984Z,100.00
2019-02-17T01:23:46.367Z,100.00
2019-02-17T01:26:14.715Z,100.00
2019-02-17T01:28:43.102Z,100.00
2019-02-17T01:31:11.463Z,100.00
2019-02-17T01:33:39.854Z,100.00
2019-02-17T01:36:08.208Z,100.00
2019-02-17T01:38:36.607Z,100.00
2019-02-17T01:41:05.025Z,100.00
2019-02-17T01:43:33.383Z,100.00
2019-02-17T01:46:01.840Z,100.00
2019-02-17T01:48:30.198Z,100.00
2019-02-17T01:50:58.585Z,100.00
2019-02-17T01:53:26.941Z,100.00
2019-02-17T01:55:55.328Z,100.00
2019-02-17T01:58:23.691Z,100.00
2019-02-17T02:00:52.073Z,100.00
2019-02-17T02:03:20.439Z,100.00
2019-02-17T02:05:48.891Z,100.00
2019-02-17T02:08:17.240Z,100.00
2019-02-17T02:10:45.635Z,100.00
2019-02-17T02:13:14.177Z,100.00
2019-02-17T02:15:42.567Z,100.00
2019-02-17T02:18:10.920Z,100.00
2019-02-17T02:20:39.379Z,100.00
2019-02-17T02:23:07.734Z,100.00
2019-02-17T02:25:36.121Z,100.00
2019-02-17T02:28:04.479Z,100.00
2019-02-17T02:30:32.870Z,100.00
2019-02-17T02:33:01.232Z,100.00
2019-02-17T02:35:29.678Z,100.00
2019-02-17T02:37:58.030Z,100.00
2019-02-17T02:40:26.411Z,100.00
2019-02-17T02:42:54.774Z,100.00
2019-02-17T02:45:23.124Z,100.00
2019-02-17T02:47:51.512Z,100.00
2019-02-17T02:50:19.873Z,100.00
2019-02-17T02:52:48.260Z,100.00
2019-02-17T02:55:16.685Z,100.00
2019-02-17T02:57:45.086Z,100.00
2019-02-17T03:00:14.072Z,100.00
2019-02-17T03:02:42.460Z,100.00
2019-02-17T03:05:10.891Z,100.00
2019-02-17T03:07:39.349Z,100.00
2019-02-17T03:10:09.146Z,100.00
2019-02-17T03:12:37.540Z,100.00
2019-02-17T03:15:07.935Z,100.00
2019-02-17T03:17:36.327Z,100.00
2019-02-17T03:20:07.124Z,100.00
2019-02-17T03:22:35.586Z,100.00
2019-02-17T03:25:04.774Z,100.00
2019-02-17T03:27:33.161Z,100.00
2019-02-17T03:30:04.987Z,100.00
2019-02-17T03:32:31.632Z,100.00
2019-02-17T03:34:59.994Z,100.00
2019-02-17T03:37:28.750Z,100.00
2019-02-17T03:39:57.113Z,100.00
2019-02-17T03:42:25.570Z,100.00
2019-02-17T03:44:53.928Z,100.00
2019-02-17T03:47:22.313Z,100.00
2019-02-17T03:49:50.670Z,100.00
2019-02-17T03:52:19.074Z,100.00
2019-02-17T03:54:47.517Z,100.00
2019-02-17T03:57:15.880Z,100.00
2019-02-17T03:59:44.242Z,100.00
2019-02-17T04:02:12.662Z,100.00
2019-02-17T04:04:41.333Z,100.00
2019-02-17T04:07:09.751Z,100.00
2019-02-17T04:09:38.236Z,100.00
2019-02-17T04:12:06.595Z,100.00
2019-02-17T04:14:35.054Z,100.00
2019-02-17T04:17:03.519Z,100.00
2019-02-17T04:19:31.891Z,100.00
2019-02-17T04:22:00.319Z,100.00
2019-02-17T04:24:28.848Z,100.00
2019-02-17T04:26:57.209Z,100.00
2019-02-17T04:29:25.598Z,100.00
2019-02-17T04:31:53.952Z,100.00
2019-02-17T04:34:22.342Z,100.00
2019-02-17T04:36:50.703Z,100.00
2019-02-17T04:39:19.090Z,100.00
2019-02-17T04:41:47.445Z,100.00
2019-02-17T04:44:15.830Z,100.00
2019-02-17T04:46:44.189Z,100.00
2019-02-17T04:49:12.578Z,100.00
2019-02-17T04:51:40.939Z,100.00
2019-02-17T04:54:09.329Z,100.00
2019-02-17T04:56:37.680Z,100.00
2019-02-17T04:59:06.072Z,100.00
2019-02-17T05:01:34.430Z,100.00
2019-02-17T05:04:02.796Z,100.00
2019-02-17T05:06:31.169Z,100.00
2019-02-17T05:08:59.527Z,100.00
2019-02-17T05:11:27.914Z,100.00
2019-02-17T05:13:56.276Z,100.00
2019-02-17T05:16:24.663Z,100.00
2019-02-17T05:18:53.092Z,100.00
2019-02-17T05:21:21.479Z,100.00
2019-02-17T05:23:49.843Z,100.00
2019-02-17T05:26:18.232Z,100.00
2019-02-17T05:28:46.588Z,100.00
2019-02-17T05:31:14.976Z,100.00
2019-02-17T05:33:43.329Z,100.00
2019-02-17T05:36:11.714Z,100.00
2019-02-17T05:38:40.068Z,100.00
2019-02-17T05:41:08.459Z,100.00
2019-02-17T05:43:36.826Z,100.00
2019-02-17T05:46:05.815Z,100.00
2019-02-17T05:48:34.623Z,100.00
2019-02-17T05:51:03.009Z,100.00
2019-02-17T05:53:31.373Z,100.00
2019-02-17T05:55:59.764Z,100.00
2019-02-17T05:58:28.112Z,100.00
2019-02-17T06:01:03.999Z,100.00
2019-02-17T06:03:26.587Z,100.00
2019-02-17T06:05:54.979Z,100.00
2019-02-17T06:08:23.334Z,100.00
2019-02-17T06:10:51.722Z,100.00
2019-02-17T06:13:20.077Z,100.00
2019-02-17T06:15:48.469Z,100.00
2019-02-17T06:18:16.830Z,100.00
2019-02-17T06:20:45.373Z,100.00
2019-02-17T06:23:13.729Z,100.00
2019-02-17T06:25:42.195Z,100.00
2019-02-17T06:28:10.551Z,100.00
2019-02-17T06:30:38.941Z,100.00
2019-02-17T06:33:07.296Z,100.00
2019-02-17T06:35:35.679Z,100.00
2019-02-17T06:38:04.037Z,100.00
2019-02-17T06:40:32.429Z,100.00
2019-02-17T06:43:00.788Z,100.00
2019-02-17T06:45:29.142Z,100.00
2019-02-17T06:47:57.536Z,100.00
2019-02-17T06:50:25.891Z,100.00
2019-02-17T06:52:54.282Z,100.00
2019-02-17T06:55:24.282Z,100.00
2019-02-17T06:57:52.682Z,100.00
2019-02-17T07:00:25.545Z,100.00
2019-02-17T07:02:53.931Z,100.00
2019-02-17T07:05:26.917Z,100.00
2019-02-17T07:07:55.294Z,100.00
2019-02-17T07:10:23.649Z,100.00
2019-02-17T07:12:52.037Z,100.00
2019-02-17T07:15:20.463Z,100.00
2019-02-17T07:17:48.846Z,100.00
2019-02-17T07:20:17.209Z,100.00
2019-02-17T07:22:46.012Z,100.00
2019-02-17T07:25:16.927Z,100.00
2019-02-17T07:27:45.696Z,100.00
2019-02-17T07:30:16.513Z,100.00
2019-02-17T07:32:45.781Z,100.00
2019-02-17T07:35:15.485Z,100.00
2019-02-17T07:37:44.358Z,100.00
2019-02-17T07:40:14.680Z,100.00
2019-02-17T07:42:44.168Z,100.00
2019-02-17T07:45:13.219Z,100.00
2019-02-17T07:47:42.344Z,100.00
2019-02-17T07:50:11.910Z,100.00
2019-02-17T07:52:40.846Z,100.00
2019-02-17T07:55:12.832Z,100.00
2019-02-17T07:57:41.826Z,100.00
2019-02-17T08:00:12.355Z,100.00
2019-02-17T08:02:42.118Z,100.00
2019-02-17T08:05:12.886Z,100.00
2019-02-17T08:07:41.555Z,100.00
2019-02-17T08:10:10.718Z,100.00
2019-02-17T08:12:39.131Z,100.00
2019-02-17T08:15:11.258Z,100.00
2019-02-17T08:17:39.917Z,100.00
2019-02-17T08:20:10.611Z,100.00
2019-02-17T08:22:39.049Z,100.00
2019-02-17T08:25:08.873Z,100.00
2019-02-17T08:27:37.324Z,100.00
2019-02-17T08:30:08.889Z,100.00
2019-02-17T08:32:38.329Z,100.00
2019-02-17T08:35:07.639Z,100.00
2019-02-17T08:37:36.053Z,100.00
2019-02-17T08:40:07.365Z,100.00
2019-02-17T08:42:35.834Z,100.00
2019-02-17T08:45:05.265Z,100.00
2019-02-17T08:47:33.646Z,100.00
2019-02-17T08:50:02.193Z,100.00
2019-02-17T08:52:30.570Z,100.00
2019-02-17T08:54:59.032Z,100.00
2019-02-17T08:57:27.440Z,100.00
2019-02-17T08:59:55.904Z,100.00
2019-02-17T09:02:24.272Z,100.00
2019-02-17T09:04:52.690Z,100.00
2019-02-17T09:07:21.050Z,100.00
2019-02-17T09:09:49.467Z,100.00
2019-02-17T09:12:17.939Z,100.00
2019-02-17T09:14:46.426Z,100.00
2019-02-17T09:17:14.961Z,100.00
2019-02-17T09:19:43.492Z,100.00
2019-02-17T09:22:11.999Z,100.00
2019-02-17T09:24:40.380Z,100.00
2019-02-17T09:27:09.354Z,100.00
2019-02-17T09:29:37.866Z,100.00
2019-02-17T09:32:15.700Z,100.00
2019-02-17T09:34:36.384Z,100.00
2019-02-17T09:37:05.069Z,100.00
2019-02-17T09:39:33.413Z,100.00
2019-02-17T09:42:01.925Z,100.00
2019-02-17T09:44:30.428Z,100.00
2019-02-17T09:47:01.073Z,100.00
2019-02-17T09:49:29.909Z,100.00
2019-02-17T09:51:58.556Z,100.00
2019-02-17T09:54:26.966Z,100.00
2019-02-17T09:56:56.120Z,100.00
2019-02-17T09:59:24.568Z,100.00
2019-02-17T10:01:53.126Z,100.00
2019-02-17T10:04:21.601Z,97.93
2019-02-17T10:06:50.094Z,95.57
2019-02-17T10:09:18.541Z,95.63
2019-02-17T10:11:46.938Z,93.41
2019-02-17T10:14:15.387Z,94.29
2019-02-17T10:16:43.966Z,91.58
2019-02-17T10:19:12.567Z,88.53
2019-02-17T10:21:41.114Z,87.41
2019-02-17T10:24:09.578Z,88.26
2019-02-17T10:26:38.043Z,84.24
2019-02-17T10:29:06.524Z,85.43
2019-02-17T10:31:35.011Z,84.61
2019-02-17T10:34:03.498Z,86.17
2019-02-17T10:36:32.012Z,86.46
2019-02-17T10:39:00.419Z,82.21
2019-02-17T10:41:28.777Z,79.99
2019-02-17T10:43:57.208Z,80.65
2019-02-17T10:46:25.563Z,83.96
2019-02-17T10:48:53.984Z,80.80
2019-02-17T10:51:22.494Z,80.24
2019-02-17T10:53:50.980Z,77.77
2019-02-17T10:56:19.508Z,79.26
2019-02-17T10:58:47.995Z,75.15
2019-02-17T11:01:16.443Z,77.53
2019-02-17T11:03:56.863Z,76.75
2019-02-17T11:06:25.316Z,75.99
2019-02-17T11:08:53.720Z,74.42
2019-02-17T11:11:22.169Z,70.78
2019-02-17T11:13:50.670Z,72.47
2019-02-17T11:16:19.101Z,73.06
2019-02-17T11:18:47.582Z,69.77
2019-02-17T11:21:16.002Z,74.16
2019-02-17T11:23:44.419Z,67.02
2019-02-17T11:26:12.859Z,66.38
2019-02-17T11:28:41.262Z,66.06
2019-02-17T11:31:09.701Z,62.60
2019-02-17T11:33:38.103Z,65.59
2019-02-17T11:36:06.492Z,66.12
2019-02-17T11:38:34.882Z,68.32
2019-02-17T11:41:03.270Z,64.04
2019-02-17T11:43:31.733Z,64.47
2019-02-17T11:46:00.100Z,64.05
2019-02-17T11:48:28.507Z,65.23
2019-02-17T11:50:56.880Z,63.90
2019-02-17T11:53:25.329Z,67.40
2019-02-17T11:55:53.754Z,63.97
2019-02-17T11:58:22.200Z,62.78
2019-02-17T12:00:50.687Z,62.61
2019-02-17T12:03:19.202Z,63.06
2019-02-17T12:05:47.600Z,60.64
2019-02-17T12:08:16.133Z,61.37
2019-02-17T12:10:44.524Z,60.66
2019-02-17T12:13:12.961Z,61.98
2019-02-17T12:15:41.442Z,58.24
2019-02-17T12:18:09.893Z,58.69
2019-02-17T12:20:46.294Z,56.44
2019-02-17T12:23:18.938Z,55.44
2019-02-17T12:25:54.820Z,57.79
2019-02-17T12:28:27.270Z,54.06
2019-02-17T12:30:55.739Z,54.67
2019-02-17T12:33:24.095Z,55.91
2019-02-17T12:35:52.509Z,55.03
2019-02-17T12:38:20.850Z,54.79
2019-02-17T12:40:49.308Z,53.57
2019-02-17T12:43:17.676Z,54.03
2019-02-17T12:45:46.124Z,53.32
2019-02-17T12:48:14.487Z,49.62
2019-02-17T12:50:42.964Z,49.76
2019-02-17T12:53:11.380Z,51.01
2019-02-17T12:55:39.839Z,51.58
2019-02-17T12:58:08.276Z,53.54
2019-02-17T13:00:36.797Z,54.12
2019-02-17T13:03:05.825Z,52.68
2019-02-17T13:05:34.219Z,54.79
2019-02-17T13:08:02.651Z,51.10
2019-02-17T13:10:31.126Z,51.15
2019-02-17T13:12:59.559Z,50.00
2019-02-17T13:15:28.037Z,50.16
2019-02-17T13:17:56.420Z,50.75
2019-02-17T13:20:24.808Z,51.55
2019-02-17T13:22:53.162Z,49.09
2019-02-17T13:25:21.634Z,49.50
2019-02-17T13:27:50.071Z,49.18
2019-02-17T13:30:23.583Z,47.86
2019-02-17T13:32:51.975Z,46.89
2019-02-17T13:35:20.461Z,45.64
2019-02-17T13:37:48.934Z,47.15
2019-02-17T13:40:17.368Z,45.68
2019-02-17T13:42:45.831Z,46.04
2019-02-17T13:45:15.347Z,47.36
2019-02-17T13:47:43.820Z,45.66
2019-02-17T13:50:14.377Z,43.29
2019-02-17T13:52:42.771Z,46.99
2019-02-17T13:55:11.326Z,45.68
2019-02-17T13:57:39.858Z,44.71
2019-02-17T14:00:14.438Z,43.10
2019-02-17T14:02:42.903Z,44.03
2019-02-17T14:05:11.322Z,44.44
2019-02-17T14:07:39.796Z,46.16
2019-02-17T14:10:15.536Z,44.33
2019-02-17T14:12:44.120Z,42.43
2019-02-17T14:15:20.191Z,41.61
2019-02-17T14:17:48.666Z,45.55
2019-02-17T14:20:17.095Z,42.87
2019-02-17T14:22:45.550Z,44.49
2019-02-17T14:25:13.984Z,42.60
2019-02-17T14:27:42.449Z,41.66
2019-02-17T14:30:16.604Z,42.79
2019-02-17T14:32:45.074Z,43.54
2019-02-17T14:35:13.948Z,43.31
2019-02-17T14:37:42.479Z,42.29
2019-02-17T14:40:14.150Z,43.39
2019-02-17T14:42:42.602Z,45.29
2019-02-17T14:45:12.703Z,42.74
2019-02-17T14:47:41.164Z,46.30
2019-02-17T14:50:09.643Z,47.04
2019-02-17T14:52:38.106Z,44.57
2019-02-17T14:55:11.139Z,42.24
2019-02-17T14:57:39.592Z,46.08
2019-02-17T15:00:11.407Z,42.75
2019-02-17T15:02:39.790Z,42.67
2019-02-17T15:05:09.697Z,42.48
2019-02-17T15:07:38.198Z,43.61
2019-02-17T15:10:14.337Z,42.19
2019-02-17T15:12:44.246Z,44.37
2019-02-17T15:15:15.165Z,45.34
2019-02-17T15:17:43.592Z,41.08
2019-02-17T15:20:25.141Z,41.87
2019-02-17T15:22:53.648Z,41.30
2019-02-17T15:25:22.406Z,43.91
2019-02-17T15:27:50.830Z,42.84
2019-02-17T15:30:19.359Z,41.22
2019-02-17T15:32:48.120Z,41.33
2019-02-17T15:35:16.543Z,45.20
2019-02-17T15:37:44.982Z,46.91
2019-02-17T15:40:15.180Z,46.14
2019-02-17T15:42:43.830Z,44.12
2019-02-17T15:45:13.356Z,41.39
2019-02-17T15:47:41.782Z,42.36
2019-02-17T15:50:11.819Z,42.90
2019-02-17T15:52:40.246Z,42.28
2019-02-17T15:55:13.000Z,43.58
2019-02-17T15:57:41.988Z,43.89
2019-02-17T16:00:15.403Z,42.40
2019-02-17T16:02:43.826Z,42.51
2019-02-17T16:05:12.541Z,44.21
2019-02-17T16:07:41.427Z,43.27
2019-02-17T16:10:11.667Z,45.01
2019-02-17T16:12:40.082Z,42.85
2019-02-17T16:15:14.657Z,43.44
2019-02-17T16:17:43.313Z,42.91
2019-02-17T16:20:13.424Z,43.85
2019-02-17T16:22:41.849Z,44.41
2019-02-17T16:25:11.091Z,45.02
2019-02-17T16:27:39.585Z,45.46
2019-02-17T16:30:16.100Z,44.31
2019-02-17T16:32:44.518Z,47.31
2019-02-17T16:35:13.093Z,47.39
2019-02-17T16:37:41.641Z,48.51
2019-02-17T16:40:12.935Z,47.84
2019-02-17T16:42:43.464Z,47.99
2019-02-17T16:45:16.238Z,47.46
2019-02-17T16:47:45.009Z,46.66
2019-02-17T16:50:21.528Z,45.10
2019-02-17T16:52:49.943Z,45.67
2019-02-17T16:55:18.419Z,47.40
2019-02-17T16:57:46.765Z,47.59
2019-02-17T17:00:18.996Z,48.45
2019-02-17T17:02:47.982Z,50.16
2019-02-17T17:05:16.662Z,49.50
2019-02-17T17:07:45.086Z,51.04
2019-02-17T17:10:14.080Z,51.53
2019-02-17T17:12:42.588Z,51.57
2019-02-17T17:15:11.562Z,52.90
2019-02-17T17:17:40.100Z,53.21
2019-02-17T17:20:10.785Z,54.21
2019-02-17T17:22:39.737Z,54.19
2019-02-17T17:25:10.002Z,56.59
2019-02-17T17:27:38.673Z,60.10
2019-02-17T17:30:15.200Z,59.82
2019-02-17T17:32:44.214Z,60.41
2019-02-17T17:35:12.701Z,62.10
2019-02-17T17:37:41.158Z,60.67
2019-02-17T17:40:17.209Z,61.59
2019-02-17T17:42:45.737Z,60.33
2019-02-17T17:45:22.797Z,60.97
2019-02-17T17:47:51.334Z,67.66
2019-02-17T17:50:19.761Z,68.24
2019-02-17T17:52:48.156Z,69.17
2019-02-17T17:55:16.522Z,69.82
2019-02-17T17:57:45.017Z,69.77
2019-02-17T18:00:19.401Z,69.57
2019-02-17T18:02:48.040Z,69.40
2019-02-17T18:05:16.569Z,69.05
2019-02-17T18:07:45.344Z,69.81
2019-02-17T18:10:16.307Z,68.97
2019-02-17T18:12:45.656Z,70.05
2019-02-17T18:15:17.320Z,69.31
2019-02-17T18:17:53.799Z,71.31
2019-02-17T18:20:16.487Z,72.56
2019-02-17T18:22:45.105Z,72.91
2019-02-17T18:25:15.142Z,71.58
2019-02-17T18:27:43.757Z,73.78
2019-02-17T18:30:19.441Z,72.11
2019-02-17T18:32:48.043Z,72.80
2019-02-17T18:35:20.344Z,75.59
2019-02-17T18:37:46.926Z,75.79
2019-02-17T18:40:21.877Z,75.65
2019-02-17T18:42:50.323Z,78.69
2019-02-17T18:45:19.227Z,77.99
2019-02-17T18:47:47.686Z,78.61
2019-02-17T18:50:17.187Z,81.63
2019-02-17T18:52:45.643Z,80.09
2019-02-17T18:55:14.564Z,80.59
2019-02-17T18:57:49.991Z,82.06
2019-02-17T19:00:25.012Z,81.17
2019-02-17T19:02:53.609Z,80.56
2019-02-17T19:05:31.624Z,83.17
2019-02-17T19:07:52.305Z,81.73
2019-02-17T19:10:20.735Z,83.33
2019-02-17T19:12:49.201Z,81.25
2019-02-17T19:15:19.577Z,82.37
2019-02-17T19:17:49.455Z,84.51
2019-02-17T19:20:26.772Z,82.84
2019-02-17T19:22:55.233Z,81.66
2019-02-17T19:25:23.998Z,80.94
2019-02-17T19:27:52.518Z,84.52
2019-02-17T19:30:20.945Z,89.94
2019-02-17T19:32:51.462Z,85.58
2019-02-17T19:35:19.983Z,85.05
2019-02-17T19:37:48.494Z,86.91
2019-02-17T19:40:16.914Z,86.21
2019-02-17T19:42:45.277Z,87.02
2019-02-17T19:45:18.529Z,86.12
2019-02-17T19:47:47.495Z,92.22
2019-02-17T19:50:16.623Z,92.46
2019-02-17T19:52:45.305Z,90.02
2019-02-17T19:55:14.510Z,87.92
2019-02-17T19:57:43.715Z,87.01
2019-02-17T20:00:17.369Z,86.79
2019-02-17T20:02:47.663Z,91.90
2019-02-17T20:05:19.459Z,89.68
2019-02-17T20:07:47.959Z,88.88
2019-02-17T20:10:16.778Z,89.53
2019-02-17T20:12:45.199Z,91.67
2019-02-17T20:15:13.674Z,88.41
2019-02-17T20:17:43.621Z,88.31
2019-02-17T20:20:12.423Z,87.05
2019-02-17T20:22:40.789Z,88.54
2019-02-17T20:25:10.963Z,89.44
2019-02-17T20:27:39.526Z,89.34
2019-02-17T20:30:10.544Z,93.04
2019-02-17T20:32:39.180Z,90.36
2019-02-17T20:35:11.283Z,90.77
2019-02-17T20:37:39.642Z,90.41
2019-02-17T20:40:13.106Z,92.95
2019-02-17T20:42:41.456Z,91.83
2019-02-17T20:45:11.708Z,90.67
2019-02-17T20:47:40.558Z,89.41
2019-02-17T20:50:16.563Z,89.20
2019-02-17T20:52:45.390Z,90.38
2019-02-17T20:55:14.255Z,91.42
2019-02-17T20:57:43.198Z,93.06
2019-02-17T21:00:16.799Z,92.83
2019-02-17T21:02:45.168Z,96.45
2019-02-17T21:05:14.121Z,98.15
2019-02-17T21:07:43.199Z,94.85
2019-02-17T21:10:14.187Z,93.33
2019-02-17T21:12:42.761Z,96.02
2019-02-17T21:15:17.316Z,95.88
2019-02-17T21:17:45.741Z,97.07
2019-02-17T21:20:15.440Z,97.08
2019-02-17T21:22:43.875Z,96.34
2019-02-17T21:25:13.499Z,96.87
2019-02-17T21:27:41.919Z,96.94
2019-02-17T21:30:13.134Z,95.78
2019-02-17T21:32:41.557Z,96.64
2019-02-17T21:35:12.589Z,96.93
2019-02-17T21:37:40.951Z,97.92
2019-02-17T21:40:11.708Z,100.00
2019-02-17T21:42:40.405Z,100.00
2019-02-17T21:45:14.315Z,100.00
2019-02-17T21:47:43.067Z,100.00
2019-02-17T21:50:15.272Z,100.00
2019-02-17T21:52:43.828Z,100.00
2019-02-17T21:55:15.901Z,100.00
2019-02-17T21:57:44.837Z,100.00
2019-02-17T22:00:20.136Z,100.00
2019-02-17T22:02:49.233Z,100.00
2019-02-17T22:05:18.855Z,100.00
2019-02-17T22:07:47.543Z,100.00
2019-02-17T22:10:17.632Z,100.00
2019-02-17T22:12:46.642Z,100.00
2019-02-17T22:15:23.489Z,100.00
2019-02-17T22:17:52.031Z,100.00
2019-02-17T22:20:20.483Z,100.00
2019-02-17T22:22:49.112Z,100.00
2019-02-17T22:25:18.046Z,100.00
2019-02-17T22:27:46.632Z,100.00
2019-02-17T22:30:16.585Z,100.00
2019-02-17T22:32:45.571Z,100.00
2019-02-17T22:35:14.291Z,100.00
2019-02-17T22:37:42.925Z,100.00
2019-02-17T22:40:15.784Z,100.00
2019-02-17T22:42:44.439Z,100.00
2019-02-17T22:45:13.673Z,100.00
2019-02-17T22:47:42.265Z,100.00
2019-02-17T22:50:15.062Z,100.00
2019-02-17T22:52:45.685Z,100.00
2019-02-17T22:55:14.885Z,100.00
2019-02-17T22:57:43.364Z,100.00
2019-02-17T23:00:24.878Z,100.00
2019-02-17T23:02:53.511Z,100.00
2019-02-17T23:05:21.976Z,100.00
2019-02-17T23:07:50.554Z,100.00
2019-02-17T23:10:19.064Z,100.00
2019-02-17T23:12:47.530Z,100.00
2019-02-17T23:15:16.029Z,100.00
2019-02-17T23:17:44.425Z,100.00
2019-02-17T23:20:12.928Z,100.00
2019-02-17T23:22:41.393Z,100.00
2019-02-17T23:25:10.220Z,100.00
2019-02-17T23:27:38.678Z,100.00
2019-02-17T23:30:09.202Z,100.00
2019-02-17T23:32:37.579Z,100.00
2019-02-17T23:35:06.626Z,100.00
2019-02-17T23:37:35.136Z,100.00
2019-02-17T23:40:05.294Z,100.00
2019-02-17T23:42:33.760Z,100.00
2019-02-17T23:45:02.123Z,100.00
2019-02-17T23:47:30.698Z,100.00
2019-02-17T23:49:59.076Z,100.00
2019-02-17T23:52:27.526Z,100.00
2019-02-17T23:54:55.952Z,100.00
2019-02-17T23:57:24.353Z,100.00
2019-02-17T23:59:52.703Z,100.00
